sensor_id;sensor_type;location;lat;lon;timestamp;P1;durP1;ratioP1;P2;durP2;ratioP2
3261;SDS011;1643;47.746;9.000;2022-09-17T00:00:49;2.07;;;1.10;;
3261;SDS011;1643;47.746;9.000;2022-09-17T00:03:16;0.80;;;0.80;;
3261;SDS011;1643;47.746;9.000;2022-09-17T00:05:42;1.90;;;1.17;;
3261;SDS011;1643;47.746;9.000;2022-09-17T00:08:09;0.97;;;0.97;;
3261;SDS011;1643;47.746;9.000;2022-09-17T00:10:39;1.23;;;1.13;;
3261;SDS011;1643;47.746;9.000;2022-09-17T00:13:07;1.13;;;1.03;;
3261;SDS011;1643;47.746;9.000;2022-09-17T00:15:38;3.63;;;1.17;;
3261;SDS011;1643;47.746;9.000;2022-09-17T00:18:09;1.27;;;1.13;;
3261;SDS011;1643;47.746;9.000;2022-09-17T00:20:41;0.90;;;0.90;;
3261;SDS011;1643;47.746;9.000;2022-09-17T00:23:09;1.00;;;1.00;;
3261;SDS011;1643;47.746;9.000;2022-09-17T00:25:37;0.90;;;0.90;;
3261;SDS011;1643;47.746;9.000;2022-09-17T00:28:03;1.60;;;0.90;;
3261;SDS011;1643;47.746;9.000;2022-09-17T00:30:29;1.17;;;1.07;;
3261;SDS011;1643;47.746;9.000;2022-09-17T00:32:55;3.57;;;1.37;;
3261;SDS011;1643;47.746;9.000;2022-09-17T00:35:21;1.63;;;1.20;;
3261;SDS011;1643;47.746;9.000;2022-09-17T00:37:48;1.13;;;1.00;;
3261;SDS011;1643;47.746;9.000;2022-09-17T00:40:13;2.30;;;1.40;;
3261;SDS011;1643;47.746;9.000;2022-09-17T00:42:39;2.00;;;1.23;;
3261;SDS011;1643;47.746;9.000;2022-09-17T00:45:05;2.40;;;1.20;;
3261;SDS011;1643;47.746;9.000;2022-09-17T00:47:39;1.27;;;1.17;;
3261;SDS011;1643;47.746;9.000;2022-09-17T00:50:30;1.43;;;1.30;;
3261;SDS011;1643;47.746;9.000;2022-09-17T00:53:06;1.23;;;1.10;;
3261;SDS011;1643;47.746;9.000;2022-09-17T00:56:03;0.80;;;0.80;;
3261;SDS011;1643;47.746;9.000;2022-09-17T00:58:34;1.10;;;1.00;;
3261;SDS011;1643;47.746;9.000;2022-09-17T01:01:01;2.10;;;1.20;;
3261;SDS011;1643;47.746;9.000;2022-09-17T01:03:27;1.17;;;1.07;;
3261;SDS011;1643;47.746;9.000;2022-09-17T01:05:56;1.17;;;1.00;;
3261;SDS011;1643;47.746;9.000;2022-09-17T01:14:06;2.50;;;1.00;;
3261;SDS011;1643;47.746;9.000;2022-09-17T01:24:47;0.87;;;0.87;;
3261;SDS011;1643;47.746;9.000;2022-09-17T01:27:35;1.67;;;1.00;;
3261;SDS011;1643;47.746;9.000;2022-09-17T01:33:30;2.30;;;1.00;;
3261;SDS011;1643;47.746;9.000;2022-09-17T01:36:11;1.30;;;1.10;;
3261;SDS011;1643;47.746;9.000;2022-09-17T01:41:36;1.57;;;1.03;;
3261;SDS011;1643;47.746;9.000;2022-09-17T01:47:01;1.40;;;1.20;;
3261;SDS011;1643;47.746;9.000;2022-09-17T01:49:34;1.47;;;1.20;;
3261;SDS011;1643;47.746;9.000;2022-09-17T01:52:01;1.10;;;1.00;;
3261;SDS011;1643;47.746;9.000;2022-09-17T01:54:29;1.40;;;1.30;;
3261;SDS011;1643;47.746;9.000;2022-09-17T01:57:04;1.57;;;1.13;;
3261;SDS011;1643;47.746;9.000;2022-09-17T01:59:38;1.10;;;1.00;;
3261;SDS011;1643;47.746;9.000;2022-09-17T02:02:29;1.00;;;1.00;;
3261;SDS011;1643;47.746;9.000;2022-09-17T02:08:05;1.20;;;1.10;;
3261;SDS011;1643;47.746;9.000;2022-09-17T02:10:35;1.00;;;0.90;;
3261;SDS011;1643;47.746;9.000;2022-09-17T02:13:17;1.00;;;1.00;;
3261;SDS011;1643;47.746;9.000;2022-09-17T02:15:56;5.93;;;1.37;;
3261;SDS011;1643;47.746;9.000;2022-09-17T02:18:30;1.87;;;1.00;;
3261;SDS011;1643;47.746;9.000;2022-09-17T02:21:15;0.80;;;0.80;;
3261;SDS011;1643;47.746;9.000;2022-09-17T02:24:05;1.40;;;1.10;;
3261;SDS011;1643;47.746;9.000;2022-09-17T02:26:38;1.23;;;0.97;;
3261;SDS011;1643;47.746;9.000;2022-09-17T02:29:12;1.10;;;1.00;;
3261;SDS011;1643;47.746;9.000;2022-09-17T02:32:06;1.00;;;0.90;;
3261;SDS011;1643;47.746;9.000;2022-09-17T02:34:33;0.70;;;0.70;;
3261;SDS011;1643;47.746;9.000;2022-09-17T02:36:59;0.97;;;0.90;;
3261;SDS011;1643;47.746;9.000;2022-09-17T02:39:26;1.30;;;0.70;;
3261;SDS011;1643;47.746;9.000;2022-09-17T02:49:53;0.90;;;0.90;;
3261;SDS011;1643;47.746;9.000;2022-09-17T02:55:32;0.70;;;0.70;;
3261;SDS011;1643;47.746;9.000;2022-09-17T03:00:29;1.37;;;0.80;;
3261;SDS011;1643;47.746;9.000;2022-09-17T03:05:28;1.10;;;1.00;;
3261;SDS011;1643;47.746;9.000;2022-09-17T03:07:55;0.70;;;0.70;;
3261;SDS011;1643;47.746;9.000;2022-09-17T03:10:21;1.93;;;0.97;;
3261;SDS011;1643;47.746;9.000;2022-09-17T03:12:47;2.23;;;0.90;;
3261;SDS011;1643;47.746;9.000;2022-09-17T03:15:13;1.27;;;0.80;;
3261;SDS011;1643;47.746;9.000;2022-09-17T03:17:39;2.20;;;0.80;;
3261;SDS011;1643;47.746;9.000;2022-09-17T03:20:05;0.80;;;0.80;;
3261;SDS011;1643;47.746;9.000;2022-09-17T03:22:31;0.70;;;0.70;;
3261;SDS011;1643;47.746;9.000;2022-09-17T03:24:56;0.70;;;0.70;;
3261;SDS011;1643;47.746;9.000;2022-09-17T03:27:22;0.80;;;0.80;;
3261;SDS011;1643;47.746;9.000;2022-09-17T03:29:48;0.87;;;0.87;;
3261;SDS011;1643;47.746;9.000;2022-09-17T03:32:13;0.80;;;0.80;;
3261;SDS011;1643;47.746;9.000;2022-09-17T03:34:39;1.10;;;0.80;;
3261;SDS011;1643;47.746;9.000;2022-09-17T03:37:04;1.23;;;0.80;;
3261;SDS011;1643;47.746;9.000;2022-09-17T03:39:30;0.80;;;0.80;;
3261;SDS011;1643;47.746;9.000;2022-09-17T03:41:56;1.73;;;0.70;;
3261;SDS011;1643;47.746;9.000;2022-09-17T03:44:21;3.03;;;0.97;;
3261;SDS011;1643;47.746;9.000;2022-09-17T03:46:48;1.00;;;0.80;;
3261;SDS011;1643;47.746;9.000;2022-09-17T03:49:14;0.87;;;0.80;;
3261;SDS011;1643;47.746;9.000;2022-09-17T03:51:40;1.07;;;0.97;;
3261;SDS011;1643;47.746;9.000;2022-09-17T03:54:05;1.37;;;0.80;;
3261;SDS011;1643;47.746;9.000;2022-09-17T03:56:31;0.80;;;0.80;;
3261;SDS011;1643;47.746;9.000;2022-09-17T03:59:00;0.90;;;0.80;;
3261;SDS011;1643;47.746;9.000;2022-09-17T04:01:26;1.00;;;0.90;;
3261;SDS011;1643;47.746;9.000;2022-09-17T04:03:53;1.00;;;0.80;;
3261;SDS011;1643;47.746;9.000;2022-09-17T04:06:19;0.70;;;0.70;;
3261;SDS011;1643;47.746;9.000;2022-09-17T04:08:45;0.83;;;0.83;;
3261;SDS011;1643;47.746;9.000;2022-09-17T04:11:10;1.17;;;1.07;;
3261;SDS011;1643;47.746;9.000;2022-09-17T04:13:36;0.87;;;0.87;;
3261;SDS011;1643;47.746;9.000;2022-09-17T04:16:02;1.83;;;1.10;;
3261;SDS011;1643;47.746;9.000;2022-09-17T04:18:28;0.90;;;0.90;;
3261;SDS011;1643;47.746;9.000;2022-09-17T04:20:54;0.80;;;0.80;;
3261;SDS011;1643;47.746;9.000;2022-09-17T04:23:21;0.80;;;0.77;;
3261;SDS011;1643;47.746;9.000;2022-09-17T04:25:47;0.97;;;0.97;;
3261;SDS011;1643;47.746;9.000;2022-09-17T04:28:13;3.77;;;0.80;;
3261;SDS011;1643;47.746;9.000;2022-09-17T04:30:38;2.07;;;1.00;;
3261;SDS011;1643;47.746;9.000;2022-09-17T04:33:06;0.83;;;0.83;;
3261;SDS011;1643;47.746;9.000;2022-09-17T04:35:33;1.90;;;1.00;;
3261;SDS011;1643;47.746;9.000;2022-09-17T04:37:58;0.80;;;0.80;;
3261;SDS011;1643;47.746;9.000;2022-09-17T04:40:25;2.43;;;0.97;;
3261;SDS011;1643;47.746;9.000;2022-09-17T04:42:54;0.80;;;0.80;;
3261;SDS011;1643;47.746;9.000;2022-09-17T04:45:23;2.60;;;0.87;;
3261;SDS011;1643;47.746;9.000;2022-09-17T04:47:49;0.90;;;0.90;;
3261;SDS011;1643;47.746;9.000;2022-09-17T04:50:15;1.67;;;0.80;;
3261;SDS011;1643;47.746;9.000;2022-09-17T04:52:42;0.93;;;0.90;;
3261;SDS011;1643;47.746;9.000;2022-09-17T04:55:09;0.80;;;0.80;;
3261;SDS011;1643;47.746;9.000;2022-09-17T04:57:35;1.00;;;0.80;;
3261;SDS011;1643;47.746;9.000;2022-09-17T05:00:00;0.90;;;0.90;;
3261;SDS011;1643;47.746;9.000;2022-09-17T05:02:26;1.30;;;0.83;;
3261;SDS011;1643;47.746;9.000;2022-09-17T05:04:52;1.00;;;0.90;;
3261;SDS011;1643;47.746;9.000;2022-09-17T05:07:18;1.63;;;0.87;;
3261;SDS011;1643;47.746;9.000;2022-09-17T05:09:43;0.90;;;0.70;;
3261;SDS011;1643;47.746;9.000;2022-09-17T05:12:09;0.80;;;0.80;;
3261;SDS011;1643;47.746;9.000;2022-09-17T05:14:34;0.80;;;0.80;;
3261;SDS011;1643;47.746;9.000;2022-09-17T05:17:00;1.30;;;0.90;;
3261;SDS011;1643;47.746;9.000;2022-09-17T05:19:25;0.80;;;0.70;;
3261;SDS011;1643;47.746;9.000;2022-09-17T05:21:51;1.60;;;1.03;;
3261;SDS011;1643;47.746;9.000;2022-09-17T05:24:17;1.20;;;0.80;;
3261;SDS011;1643;47.746;9.000;2022-09-17T05:26:42;2.50;;;1.37;;
3261;SDS011;1643;47.746;9.000;2022-09-17T05:29:08;0.80;;;0.80;;
3261;SDS011;1643;47.746;9.000;2022-09-17T05:31:33;0.70;;;0.70;;
3261;SDS011;1643;47.746;9.000;2022-09-17T05:33:59;1.07;;;0.90;;
3261;SDS011;1643;47.746;9.000;2022-09-17T05:36:24;1.40;;;0.90;;
3261;SDS011;1643;47.746;9.000;2022-09-17T05:38:50;2.10;;;0.87;;
3261;SDS011;1643;47.746;9.000;2022-09-17T05:41:16;1.10;;;1.00;;
3261;SDS011;1643;47.746;9.000;2022-09-17T05:43:42;0.80;;;0.80;;
3261;SDS011;1643;47.746;9.000;2022-09-17T05:46:07;2.27;;;1.00;;
3261;SDS011;1643;47.746;9.000;2022-09-17T05:48:33;1.00;;;0.90;;
3261;SDS011;1643;47.746;9.000;2022-09-17T05:50:59;1.30;;;1.20;;
3261;SDS011;1643;47.746;9.000;2022-09-17T05:53:25;1.20;;;1.10;;
3261;SDS011;1643;47.746;9.000;2022-09-17T05:55:54;1.00;;;0.90;;
3261;SDS011;1643;47.746;9.000;2022-09-17T05:58:21;1.37;;;1.03;;
3261;SDS011;1643;47.746;9.000;2022-09-17T06:00:46;1.10;;;0.90;;
3261;SDS011;1643;47.746;9.000;2022-09-17T06:03:13;0.80;;;0.80;;
3261;SDS011;1643;47.746;9.000;2022-09-17T06:05:40;1.47;;;1.37;;
3261;SDS011;1643;47.746;9.000;2022-09-17T06:08:06;3.43;;;1.10;;
3261;SDS011;1643;47.746;9.000;2022-09-17T06:10:36;1.60;;;1.03;;
3261;SDS011;1643;47.746;9.000;2022-09-17T06:13:02;1.43;;;1.00;;
3261;SDS011;1643;47.746;9.000;2022-09-17T06:15:28;1.90;;;1.07;;
3261;SDS011;1643;47.746;9.000;2022-09-17T06:17:54;2.43;;;2.20;;
3261;SDS011;1643;47.746;9.000;2022-09-17T06:20:20;40.83;;;24.57;;
3261;SDS011;1643;47.746;9.000;2022-09-17T06:22:46;135.77;;;66.50;;
3261;SDS011;1643;47.746;9.000;2022-09-17T06:25:12;59.40;;;32.73;;
3261;SDS011;1643;47.746;9.000;2022-09-17T06:27:38;27.60;;;16.17;;
3261;SDS011;1643;47.746;9.000;2022-09-17T06:30:04;8.77;;;6.50;;
3261;SDS011;1643;47.746;9.000;2022-09-17T06:32:31;5.50;;;4.37;;
3261;SDS011;1643;47.746;9.000;2022-09-17T06:34:56;2.70;;;2.37;;
3261;SDS011;1643;47.746;9.000;2022-09-17T06:37:29;3.87;;;3.57;;
3261;SDS011;1643;47.746;9.000;2022-09-17T06:39:55;4.90;;;4.50;;
3261;SDS011;1643;47.746;9.000;2022-09-17T06:42:21;2.83;;;2.63;;
3261;SDS011;1643;47.746;9.000;2022-09-17T06:44:47;2.23;;;1.97;;
3261;SDS011;1643;47.746;9.000;2022-09-17T06:47:13;2.13;;;1.10;;
3261;SDS011;1643;47.746;9.000;2022-09-17T06:49:38;1.23;;;1.13;;
3261;SDS011;1643;47.746;9.000;2022-09-17T06:52:04;1.30;;;1.10;;
3261;SDS011;1643;47.746;9.000;2022-09-17T06:54:30;3.17;;;1.00;;
3261;SDS011;1643;47.746;9.000;2022-09-17T06:56:56;0.97;;;0.90;;
3261;SDS011;1643;47.746;9.000;2022-09-17T06:59:21;16.07;;;11.43;;
3261;SDS011;1643;47.746;9.000;2022-09-17T07:01:48;28.10;;;18.40;;
3261;SDS011;1643;47.746;9.000;2022-09-17T07:04:13;15.93;;;10.60;;
3261;SDS011;1643;47.746;9.000;2022-09-17T07:06:42;11.33;;;7.70;;
3261;SDS011;1643;47.746;9.000;2022-09-17T07:09:07;7.70;;;6.17;;
3261;SDS011;1643;47.746;9.000;2022-09-17T07:11:33;8.00;;;6.27;;
3261;SDS011;1643;47.746;9.000;2022-09-17T07:13:59;12.00;;;9.93;;
3261;SDS011;1643;47.746;9.000;2022-09-17T07:16:24;21.30;;;15.93;;
3261;SDS011;1643;47.746;9.000;2022-09-17T07:18:50;15.83;;;10.03;;
3261;SDS011;1643;47.746;9.000;2022-09-17T07:21:16;15.17;;;9.40;;
3261;SDS011;1643;47.746;9.000;2022-09-17T07:23:42;12.90;;;7.80;;
3261;SDS011;1643;47.746;9.000;2022-09-17T07:26:13;6.50;;;4.20;;
3261;SDS011;1643;47.746;9.000;2022-09-17T07:28:39;3.03;;;2.60;;
3261;SDS011;1643;47.746;9.000;2022-09-17T07:31:06;1.60;;;1.40;;
3261;SDS011;1643;47.746;9.000;2022-09-17T07:33:33;7.67;;;5.17;;
3261;SDS011;1643;47.746;9.000;2022-09-17T07:36:02;5.53;;;2.77;;
3261;SDS011;1643;47.746;9.000;2022-09-17T07:38:30;2.80;;;1.43;;
3261;SDS011;1643;47.746;9.000;2022-09-17T07:40:56;4.40;;;1.40;;
3261;SDS011;1643;47.746;9.000;2022-09-17T07:43:24;1.10;;;1.00;;
3261;SDS011;1643;47.746;9.000;2022-09-17T07:45:51;1.53;;;1.10;;
3261;SDS011;1643;47.746;9.000;2022-09-17T07:48:17;1.43;;;1.17;;
3261;SDS011;1643;47.746;9.000;2022-09-17T07:50:43;5.03;;;1.20;;
3261;SDS011;1643;47.746;9.000;2022-09-17T07:53:09;1.27;;;0.90;;
3261;SDS011;1643;47.746;9.000;2022-09-17T07:55:34;1.10;;;1.00;;
3261;SDS011;1643;47.746;9.000;2022-09-17T07:58:00;1.60;;;1.30;;
3261;SDS011;1643;47.746;9.000;2022-09-17T08:00:25;1.67;;;1.20;;
3261;SDS011;1643;47.746;9.000;2022-09-17T08:02:52;1.67;;;1.03;;
3261;SDS011;1643;47.746;9.000;2022-09-17T08:05:21;0.80;;;0.80;;
3261;SDS011;1643;47.746;9.000;2022-09-17T08:07:49;1.60;;;0.90;;
3261;SDS011;1643;47.746;9.000;2022-09-17T08:10:15;1.00;;;0.97;;
3261;SDS011;1643;47.746;9.000;2022-09-17T08:12:40;0.90;;;0.90;;
3261;SDS011;1643;47.746;9.000;2022-09-17T08:15:06;1.10;;;1.00;;
3261;SDS011;1643;47.746;9.000;2022-09-17T08:17:32;1.27;;;1.17;;
3261;SDS011;1643;47.746;9.000;2022-09-17T08:19:57;4.37;;;1.10;;
3261;SDS011;1643;47.746;9.000;2022-09-17T08:22:23;0.90;;;0.90;;
3261;SDS011;1643;47.746;9.000;2022-09-17T08:24:49;1.20;;;0.90;;
3261;SDS011;1643;47.746;9.000;2022-09-17T08:27:14;1.10;;;0.90;;
3261;SDS011;1643;47.746;9.000;2022-09-17T08:29:40;1.93;;;0.90;;
3261;SDS011;1643;47.746;9.000;2022-09-17T08:32:05;2.60;;;1.00;;
3261;SDS011;1643;47.746;9.000;2022-09-17T08:34:31;2.23;;;1.03;;
3261;SDS011;1643;47.746;9.000;2022-09-17T08:36:57;1.10;;;1.00;;
3261;SDS011;1643;47.746;9.000;2022-09-17T08:39:22;3.07;;;1.00;;
3261;SDS011;1643;47.746;9.000;2022-09-17T08:41:53;1.27;;;1.10;;
3261;SDS011;1643;47.746;9.000;2022-09-17T08:44:38;1.20;;;0.83;;
3261;SDS011;1643;47.746;9.000;2022-09-17T08:47:19;1.23;;;1.00;;
3261;SDS011;1643;47.746;9.000;2022-09-17T08:50:00;1.37;;;1.10;;
3261;SDS011;1643;47.746;9.000;2022-09-17T09:00:57;1.47;;;1.00;;
3261;SDS011;1643;47.746;9.000;2022-09-17T09:04:17;1.40;;;1.13;;
3261;SDS011;1643;47.746;9.000;2022-09-17T09:06:59;1.53;;;1.00;;
3261;SDS011;1643;47.746;9.000;2022-09-17T09:09:40;1.47;;;0.93;;
3261;SDS011;1643;47.746;9.000;2022-09-17T09:12:30;2.40;;;1.17;;
3261;SDS011;1643;47.746;9.000;2022-09-17T09:14:59;1.63;;;1.03;;
3261;SDS011;1643;47.746;9.000;2022-09-17T09:17:48;1.97;;;1.27;;
3261;SDS011;1643;47.746;9.000;2022-09-17T09:20:15;5.53;;;1.00;;
3261;SDS011;1643;47.746;9.000;2022-09-17T09:22:56;1.50;;;1.00;;
3261;SDS011;1643;47.746;9.000;2022-09-17T09:25:41;1.20;;;1.10;;
3261;SDS011;1643;47.746;9.000;2022-09-17T09:28:43;1.83;;;1.30;;
3261;SDS011;1643;47.746;9.000;2022-09-17T09:31:35;12.60;;;1.17;;
3261;SDS011;1643;47.746;9.000;2022-09-17T09:34:21;1.53;;;1.33;;
3261;SDS011;1643;47.746;9.000;2022-09-17T09:36:48;2.20;;;1.03;;
3261;SDS011;1643;47.746;9.000;2022-09-17T09:39:19;2.17;;;1.37;;
3261;SDS011;1643;47.746;9.000;2022-09-17T09:44:38;3.97;;;1.00;;
3261;SDS011;1643;47.746;9.000;2022-09-17T09:52:57;1.57;;;1.30;;
3261;SDS011;1643;47.746;9.000;2022-09-17T10:01:14;3.47;;;1.10;;
3261;SDS011;1643;47.746;9.000;2022-09-17T10:03:42;1.70;;;1.30;;
3261;SDS011;1643;47.746;9.000;2022-09-17T10:06:10;1.40;;;1.30;;
3261;SDS011;1643;47.746;9.000;2022-09-17T10:08:41;1.90;;;1.13;;
3261;SDS011;1643;47.746;9.000;2022-09-17T10:11:27;1.40;;;0.93;;
3261;SDS011;1643;47.746;9.000;2022-09-17T10:14:12;1.30;;;1.20;;
3261;SDS011;1643;47.746;9.000;2022-09-17T10:16:38;1.07;;;0.97;;
3261;SDS011;1643;47.746;9.000;2022-09-17T10:21:31;1.10;;;1.00;;
3261;SDS011;1643;47.746;9.000;2022-09-17T10:24:14;2.30;;;1.13;;
3261;SDS011;1643;47.746;9.000;2022-09-17T10:26:44;1.57;;;1.00;;
3261;SDS011;1643;47.746;9.000;2022-09-17T10:29:11;1.93;;;1.03;;
3261;SDS011;1643;47.746;9.000;2022-09-17T10:31:50;1.30;;;1.00;;
3261;SDS011;1643;47.746;9.000;2022-09-17T10:34:24;1.17;;;1.00;;
3261;SDS011;1643;47.746;9.000;2022-09-17T10:36:55;0.90;;;0.90;;
3261;SDS011;1643;47.746;9.000;2022-09-17T10:42:03;1.80;;;1.17;;
3261;SDS011;1643;47.746;9.000;2022-09-17T10:44:30;1.43;;;0.87;;
3261;SDS011;1643;47.746;9.000;2022-09-17T10:47:11;1.73;;;1.00;;
3261;SDS011;1643;47.746;9.000;2022-09-17T10:49:42;1.97;;;1.00;;
3261;SDS011;1643;47.746;9.000;2022-09-17T10:52:18;1.17;;;0.80;;
3261;SDS011;1643;47.746;9.000;2022-09-17T11:00:40;0.83;;;0.83;;
3261;SDS011;1643;47.746;9.000;2022-09-17T11:06:18;0.97;;;0.97;;
3261;SDS011;1643;47.746;9.000;2022-09-17T11:17:30;1.00;;;0.90;;
3261;SDS011;1643;47.746;9.000;2022-09-17T11:36:37;2.30;;;1.07;;
3261;SDS011;1643;47.746;9.000;2022-09-17T11:39:18;1.30;;;0.90;;
3261;SDS011;1643;47.746;9.000;2022-09-17T11:41:50;1.93;;;1.20;;
3261;SDS011;1643;47.746;9.000;2022-09-17T11:44:24;2.97;;;1.00;;
3261;SDS011;1643;47.746;9.000;2022-09-17T11:47:15;1.70;;;1.60;;
3261;SDS011;1643;47.746;9.000;2022-09-17T11:50:08;1.50;;;1.10;;
3261;SDS011;1643;47.746;9.000;2022-09-17T11:52:50;2.17;;;1.17;;
3261;SDS011;1643;47.746;9.000;2022-09-17T11:56:00;1.20;;;1.10;;
3261;SDS011;1643;47.746;9.000;2022-09-17T11:58:50;2.20;;;1.30;;
3261;SDS011;1643;47.746;9.000;2022-09-17T12:01:28;1.27;;;1.17;;
3261;SDS011;1643;47.746;9.000;2022-09-17T12:06:58;3.23;;;1.00;;
3261;SDS011;1643;47.746;9.000;2022-09-17T12:09:34;1.50;;;1.03;;
3261;SDS011;1643;47.746;9.000;2022-09-17T12:12:06;1.10;;;1.00;;
3261;SDS011;1643;47.746;9.000;2022-09-17T12:17:27;2.17;;;1.00;;
3261;SDS011;1643;47.746;9.000;2022-09-17T12:20:02;1.63;;;0.80;;
3261;SDS011;1643;47.746;9.000;2022-09-17T12:22:34;2.23;;;1.10;;
3261;SDS011;1643;47.746;9.000;2022-09-17T12:25:04;0.80;;;0.80;;
3261;SDS011;1643;47.746;9.000;2022-09-17T12:27:37;1.10;;;0.90;;
3261;SDS011;1643;47.746;9.000;2022-09-17T12:30:51;1.47;;;0.90;;
3261;SDS011;1643;47.746;9.000;2022-09-17T12:41:44;1.33;;;0.90;;
3261;SDS011;1643;47.746;9.000;2022-09-17T12:44:44;1.80;;;1.10;;
3261;SDS011;1643;47.746;9.000;2022-09-17T13:00:52;1.77;;;1.30;;
3261;SDS011;1643;47.746;9.000;2022-09-17T13:03:33;1.87;;;1.30;;
3261;SDS011;1643;47.746;9.000;2022-09-17T13:06:11;1.20;;;1.10;;
3261;SDS011;1643;47.746;9.000;2022-09-17T13:14:27;1.10;;;1.00;;
3261;SDS011;1643;47.746;9.000;2022-09-17T13:22:21;1.17;;;0.90;;
3261;SDS011;1643;47.746;9.000;2022-09-17T13:27:46;2.07;;;0.93;;
3261;SDS011;1643;47.746;9.000;2022-09-17T13:30:14;0.80;;;0.80;;
3261;SDS011;1643;47.746;9.000;2022-09-17T13:32:42;1.63;;;0.97;;
3261;SDS011;1643;47.746;9.000;2022-09-17T13:37:38;0.90;;;0.90;;
3261;SDS011;1643;47.746;9.000;2022-09-17T13:40:05;1.10;;;1.00;;
3261;SDS011;1643;47.746;9.000;2022-09-17T13:42:46;1.50;;;0.93;;
3261;SDS011;1643;47.746;9.000;2022-09-17T13:45:16;2.63;;;1.23;;
3261;SDS011;1643;47.746;9.000;2022-09-17T13:50:31;2.70;;;0.80;;
3261;SDS011;1643;47.746;9.000;2022-09-17T13:58:03;1.73;;;1.20;;
3261;SDS011;1643;47.746;9.000;2022-09-17T14:01:08;1.43;;;1.00;;
3261;SDS011;1643;47.746;9.000;2022-09-17T14:19:16;6.87;;;3.50;;
3261;SDS011;1643;47.746;9.000;2022-09-17T14:24:47;2.77;;;2.03;;
3261;SDS011;1643;47.746;9.000;2022-09-17T14:32:57;1.60;;;1.03;;
3261;SDS011;1643;47.746;9.000;2022-09-17T14:35:38;1.10;;;1.00;;
3261;SDS011;1643;47.746;9.000;2022-09-17T14:38:24;3.03;;;0.97;;
3261;SDS011;1643;47.746;9.000;2022-09-17T14:46:22;1.00;;;1.00;;
3261;SDS011;1643;47.746;9.000;2022-09-17T14:48:51;1.00;;;1.00;;
3261;SDS011;1643;47.746;9.000;2022-09-17T14:53:46;1.93;;;1.30;;
3261;SDS011;1643;47.746;9.000;2022-09-17T14:56:15;2.30;;;1.00;;
3261;SDS011;1643;47.746;9.000;2022-09-17T14:58:50;1.10;;;0.80;;
3261;SDS011;1643;47.746;9.000;2022-09-17T15:01:24;6.73;;;1.10;;
3261;SDS011;1643;47.746;9.000;2022-09-17T15:06:42;3.83;;;1.40;;
3261;SDS011;1643;47.746;9.000;2022-09-17T15:09:20;1.00;;;0.90;;
3261;SDS011;1643;47.746;9.000;2022-09-17T15:11:47;4.27;;;1.60;;
3261;SDS011;1643;47.746;9.000;2022-09-17T15:14:19;5.40;;;1.73;;
3261;SDS011;1643;47.746;9.000;2022-09-17T15:16:48;1.77;;;1.13;;
3261;SDS011;1643;47.746;9.000;2022-09-17T15:22:06;3.10;;;1.27;;
3261;SDS011;1643;47.746;9.000;2022-09-17T15:24:51;1.40;;;1.07;;
3261;SDS011;1643;47.746;9.000;2022-09-17T15:27:31;1.30;;;1.17;;
3261;SDS011;1643;47.746;9.000;2022-09-17T15:30:03;1.20;;;1.10;;
3261;SDS011;1643;47.746;9.000;2022-09-17T15:32:36;1.37;;;0.97;;
3261;SDS011;1643;47.746;9.000;2022-09-17T15:37:46;6.80;;;1.20;;
3261;SDS011;1643;47.746;9.000;2022-09-17T15:40:13;1.63;;;1.10;;
3261;SDS011;1643;47.746;9.000;2022-09-17T15:42:48;2.07;;;1.10;;
3261;SDS011;1643;47.746;9.000;2022-09-17T15:48:04;2.23;;;1.53;;
3261;SDS011;1643;47.746;9.000;2022-09-17T15:50:32;1.17;;;1.07;;
3261;SDS011;1643;47.746;9.000;2022-09-17T15:53:19;1.03;;;0.90;;
3261;SDS011;1643;47.746;9.000;2022-09-17T16:08:52;2.83;;;1.30;;
3261;SDS011;1643;47.746;9.000;2022-09-17T16:11:20;1.33;;;1.20;;
3261;SDS011;1643;47.746;9.000;2022-09-17T16:13:47;2.03;;;1.40;;
3261;SDS011;1643;47.746;9.000;2022-09-17T16:16:18;1.10;;;1.00;;
3261;SDS011;1643;47.746;9.000;2022-09-17T16:18:45;1.43;;;1.07;;
3261;SDS011;1643;47.746;9.000;2022-09-17T16:21:13;1.30;;;1.00;;
3261;SDS011;1643;47.746;9.000;2022-09-17T16:23:40;1.30;;;0.90;;
3261;SDS011;1643;47.746;9.000;2022-09-17T16:26:06;3.17;;;1.27;;
3261;SDS011;1643;47.746;9.000;2022-09-17T16:28:38;3.33;;;1.53;;
3261;SDS011;1643;47.746;9.000;2022-09-17T16:31:04;1.67;;;1.30;;
3261;SDS011;1643;47.746;9.000;2022-09-17T16:33:30;1.87;;;1.47;;
3261;SDS011;1643;47.746;9.000;2022-09-17T16:35:56;4.30;;;1.43;;
3261;SDS011;1643;47.746;9.000;2022-09-17T16:38:23;1.10;;;1.00;;
3261;SDS011;1643;47.746;9.000;2022-09-17T16:40:49;1.67;;;1.20;;
3261;SDS011;1643;47.746;9.000;2022-09-17T16:43:15;1.20;;;1.10;;
3261;SDS011;1643;47.746;9.000;2022-09-17T16:45:42;5.13;;;1.30;;
3261;SDS011;1643;47.746;9.000;2022-09-17T16:48:08;1.30;;;1.10;;
3261;SDS011;1643;47.746;9.000;2022-09-17T16:50:34;2.30;;;1.23;;
3261;SDS011;1643;47.746;9.000;2022-09-17T16:53:03;3.83;;;1.63;;
3261;SDS011;1643;47.746;9.000;2022-09-17T16:55:29;1.93;;;1.20;;
3261;SDS011;1643;47.746;9.000;2022-09-17T16:57:55;2.53;;;1.37;;
3261;SDS011;1643;47.746;9.000;2022-09-17T17:00:22;1.60;;;1.50;;
3261;SDS011;1643;47.746;9.000;2022-09-17T17:02:52;1.30;;;1.20;;
3261;SDS011;1643;47.746;9.000;2022-09-17T17:05:22;1.83;;;1.43;;
3261;SDS011;1643;47.746;9.000;2022-09-17T17:07:49;1.47;;;1.20;;
3261;SDS011;1643;47.746;9.000;2022-09-17T17:10:15;1.43;;;1.27;;
3261;SDS011;1643;47.746;9.000;2022-09-17T17:12:41;2.23;;;1.53;;
3261;SDS011;1643;47.746;9.000;2022-09-17T17:15:07;4.30;;;1.30;;
3261;SDS011;1643;47.746;9.000;2022-09-17T17:17:33;1.47;;;1.37;;
3261;SDS011;1643;47.746;9.000;2022-09-17T17:20:00;1.47;;;1.37;;
3261;SDS011;1643;47.746;9.000;2022-09-17T17:22:27;3.40;;;1.30;;
3261;SDS011;1643;47.746;9.000;2022-09-17T17:24:52;1.50;;;1.40;;
3261;SDS011;1643;47.746;9.000;2022-09-17T17:27:19;1.40;;;1.30;;
3261;SDS011;1643;47.746;9.000;2022-09-17T17:29:44;2.70;;;1.37;;
3261;SDS011;1643;47.746;9.000;2022-09-17T17:32:10;2.60;;;1.33;;
3261;SDS011;1643;47.746;9.000;2022-09-17T17:34:35;2.60;;;1.17;;
3261;SDS011;1643;47.746;9.000;2022-09-17T17:37:01;2.70;;;1.20;;
3261;SDS011;1643;47.746;9.000;2022-09-17T17:39:27;1.47;;;1.37;;
3261;SDS011;1643;47.746;9.000;2022-09-17T17:41:53;1.83;;;1.60;;
3261;SDS011;1643;47.746;9.000;2022-09-17T17:44:19;3.07;;;1.67;;
3261;SDS011;1643;47.746;9.000;2022-09-17T17:46:45;5.90;;;1.70;;
3261;SDS011;1643;47.746;9.000;2022-09-17T17:49:11;2.47;;;1.60;;
3261;SDS011;1643;47.746;9.000;2022-09-17T17:51:38;2.90;;;1.47;;
3261;SDS011;1643;47.746;9.000;2022-09-17T17:54:03;5.63;;;1.90;;
3261;SDS011;1643;47.746;9.000;2022-09-17T17:56:29;1.30;;;1.20;;
3261;SDS011;1643;47.746;9.000;2022-09-17T17:58:56;1.30;;;1.20;;
3261;SDS011;1643;47.746;9.000;2022-09-17T18:01:28;3.00;;;1.60;;
3261;SDS011;1643;47.746;9.000;2022-09-17T18:03:59;2.30;;;1.40;;
3261;SDS011;1643;47.746;9.000;2022-09-17T18:06:26;4.60;;;1.50;;
3261;SDS011;1643;47.746;9.000;2022-09-17T18:08:53;2.27;;;1.30;;
3261;SDS011;1643;47.746;9.000;2022-09-17T18:11:19;2.70;;;1.37;;
3261;SDS011;1643;47.746;9.000;2022-09-17T18:13:45;2.03;;;1.30;;
3261;SDS011;1643;47.746;9.000;2022-09-17T18:16:11;2.20;;;1.20;;
3261;SDS011;1643;47.746;9.000;2022-09-17T18:18:39;4.03;;;1.40;;
3261;SDS011;1643;47.746;9.000;2022-09-17T18:21:07;1.50;;;1.20;;
3261;SDS011;1643;47.746;9.000;2022-09-17T18:23:35;2.27;;;1.40;;
3261;SDS011;1643;47.746;9.000;2022-09-17T18:26:02;2.03;;;1.53;;
3261;SDS011;1643;47.746;9.000;2022-09-17T18:28:29;1.47;;;1.30;;
3261;SDS011;1643;47.746;9.000;2022-09-17T18:30:56;1.90;;;1.40;;
3261;SDS011;1643;47.746;9.000;2022-09-17T18:33:28;1.37;;;1.27;;
3261;SDS011;1643;47.746;9.000;2022-09-17T18:35:53;3.83;;;1.30;;
3261;SDS011;1643;47.746;9.000;2022-09-17T18:38:25;1.83;;;1.20;;
3261;SDS011;1643;47.746;9.000;2022-09-17T18:40:51;3.93;;;1.40;;
3261;SDS011;1643;47.746;9.000;2022-09-17T18:43:17;2.40;;;1.67;;
3261;SDS011;1643;47.746;9.000;2022-09-17T18:45:51;2.83;;;1.40;;
3261;SDS011;1643;47.746;9.000;2022-09-17T18:48:22;2.10;;;1.33;;
3261;SDS011;1643;47.746;9.000;2022-09-17T18:50:55;1.63;;;1.53;;
3261;SDS011;1643;47.746;9.000;2022-09-17T18:53:32;3.03;;;1.20;;
3261;SDS011;1643;47.746;9.000;2022-09-17T18:56:22;2.33;;;1.60;;
3261;SDS011;1643;47.746;9.000;2022-09-17T18:58:54;1.50;;;1.40;;
3261;SDS011;1643;47.746;9.000;2022-09-17T19:01:22;2.87;;;1.77;;
3261;SDS011;1643;47.746;9.000;2022-09-17T19:03:49;3.23;;;1.73;;
3261;SDS011;1643;47.746;9.000;2022-09-17T19:06:16;1.63;;;1.50;;